sensor_id;sensor_type;location;lat;lon;timestamp;pressure;altitude;pressure_sealevel;temperature;humidity
74631;BME280;63138;55.082;38.804;2022-10-16T00:02:06;101178.38;;;6.77;59.17
74631;BME280;63138;55.082;38.804;2022-10-16T00:04:32;101175.16;;;6.72;59.56
74631;BME280;63138;55.082;38.804;2022-10-16T00:06:58;101179.84;;;6.70;59.43
74631;BME280;63138;55.082;38.804;2022-10-16T00:09:24;101174.56;;;6.68;59.53
74631;BME280;63138;55.082;38.804;2022-10-16T00:11:49;101180.06;;;6.67;59.20
74631;BME280;63138;55.082;38.804;2022-10-16T00:14:15;101180.19;;;6.65;59.02
74631;BME280;63138;55.082;38.804;2022-10-16T00:16:42;101184.84;;;6.63;58.75
74631;BME280;63138;55.082;38.804;2022-10-16T00:19:09;101196.00;;;6.59;58.71
74631;BME280;63138;55.082;38.804;2022-10-16T00:21:36;101192.81;;;6.54;59.19
74631;BME280;63138;55.082;38.804;2022-10-16T00:24:20;101194.63;;;6.53;59.36
74631;BME280;63138;55.082;38.804;2022-10-16T00:26:49;101196.81;;;6.48;59.71
74631;BME280;63138;55.082;38.804;2022-10-16T00:29:15;101188.13;;;6.44;59.22
74631;BME280;63138;55.082;38.804;2022-10-16T00:31:40;101197.22;;;6.43;59.17
74631;BME280;63138;55.082;38.804;2022-10-16T00:34:06;101198.44;;;6.39;59.31
74631;BME280;63138;55.082;38.804;2022-10-16T00:36:32;101194.50;;;6.32;59.89
74631;BME280;63138;55.082;38.804;2022-10-16T00:38:58;101198.16;;;6.31;59.82
74631;BME280;63138;55.082;38.804;2022-10-16T00:41:26;101193.25;;;6.25;59.83
74631;BME280;63138;55.082;38.804;2022-10-16T00:43:57;101197.50;;;6.16;59.85
74631;BME280;63138;55.082;38.804;2022-10-16T00:51:32;101203.44;;;5.97;60.06
74631;BME280;63138;55.082;38.804;2022-10-16T00:53:59;101200.53;;;5.87;61.13
74631;BME280;63138;55.082;38.804;2022-10-16T00:56:25;101200.13;;;5.81;60.76
74631;BME280;63138;55.082;38.804;2022-10-16T00:58:51;101195.44;;;5.71;60.99
74631;BME280;63138;55.082;38.804;2022-10-16T01:01:18;101198.72;;;5.64;61.86
74631;BME280;63138;55.082;38.804;2022-10-16T01:03:44;101202.94;;;5.55;61.59
74631;BME280;63138;55.082;38.804;2022-10-16T01:06:28;101201.78;;;5.46;61.68
74631;BME280;63138;55.082;38.804;2022-10-16T01:11:43;101201.59;;;5.36;62.09
74631;BME280;63138;55.082;38.804;2022-10-16T01:17:04;101214.44;;;5.20;61.84
74631;BME280;63138;55.082;38.804;2022-10-16T01:22:26;101213.41;;;5.10;62.41
74631;BME280;63138;55.082;38.804;2022-10-16T01:25:00;101214.72;;;5.04;62.83
74631;BME280;63138;55.082;38.804;2022-10-16T01:27:33;101217.94;;;4.96;62.75
74631;BME280;63138;55.082;38.804;2022-10-16T01:32:55;101227.44;;;4.89;63.43
74631;BME280;63138;55.082;38.804;2022-10-16T01:35:46;101228.81;;;4.82;63.51
74631;BME280;63138;55.082;38.804;2022-10-16T01:38:30;101231.97;;;4.76;64.00
74631;BME280;63138;55.082;38.804;2022-10-16T01:41:04;101224.09;;;4.73;63.60
74631;BME280;63138;55.082;38.804;2022-10-16T01:43:42;101229.91;;;4.67;64.57
74631;BME280;63138;55.082;38.804;2022-10-16T01:46:10;101236.59;;;4.61;64.51
74631;BME280;63138;55.082;38.804;2022-10-16T01:48:36;101234.22;;;4.56;64.57
74631;BME280;63138;55.082;38.804;2022-10-16T01:51:06;101231.81;;;4.52;65.00
74631;BME280;63138;55.082;38.804;2022-10-16T01:53:34;101236.03;;;4.43;65.53
74631;BME280;63138;55.082;38.804;2022-10-16T01:56:03;101243.31;;;4.41;65.88
74631;BME280;63138;55.082;38.804;2022-10-16T01:58:35;101237.28;;;4.37;66.21
74631;BME280;63138;55.082;38.804;2022-10-16T02:01:04;101237.94;;;4.28;66.76
74631;BME280;63138;55.082;38.804;2022-10-16T02:03:31;101248.91;;;4.25;67.12
74631;BME280;63138;55.082;38.804;2022-10-16T02:05:58;101244.69;;;4.21;67.10
74631;BME280;63138;55.082;38.804;2022-10-16T02:08:26;101258.47;;;4.16;67.38
74631;BME280;63138;55.082;38.804;2022-10-16T02:10:55;101249.94;;;4.10;67.22
74631;BME280;63138;55.082;38.804;2022-10-16T02:15:53;101247.78;;;4.02;67.48
74631;BME280;63138;55.082;38.804;2022-10-16T02:18:20;101251.41;;;4.01;67.81
74631;BME280;63138;55.082;38.804;2022-10-16T02:20:54;101245.59;;;3.94;67.76
74631;BME280;63138;55.082;38.804;2022-10-16T02:23:39;101256.34;;;3.94;67.74
74631;BME280;63138;55.082;38.804;2022-10-16T02:26:09;101259.03;;;3.94;68.06
74631;BME280;63138;55.082;38.804;2022-10-16T02:28:45;101270.09;;;3.90;68.44
74631;BME280;63138;55.082;38.804;2022-10-16T02:31:16;101264.34;;;3.81;68.35
74631;BME280;63138;55.082;38.804;2022-10-16T02:33:45;101274.34;;;3.79;68.84
74631;BME280;63138;55.082;38.804;2022-10-16T02:36:11;101273.75;;;3.74;68.75
74631;BME280;63138;55.082;38.804;2022-10-16T02:38:38;101272.16;;;3.72;69.09
74631;BME280;63138;55.082;38.804;2022-10-16T02:41:05;101278.59;;;3.69;68.93
74631;BME280;63138;55.082;38.804;2022-10-16T02:43:31;101278.03;;;3.64;69.51
74631;BME280;63138;55.082;38.804;2022-10-16T02:45:58;101273.78;;;3.60;69.74
74631;BME280;63138;55.082;38.804;2022-10-16T02:48:24;101276.72;;;3.57;69.56
74631;BME280;63138;55.082;38.804;2022-10-16T02:50:50;101275.94;;;3.55;69.35
74631;BME280;63138;55.082;38.804;2022-10-16T02:53:16;101277.00;;;3.52;70.24
74631;BME280;63138;55.082;38.804;2022-10-16T02:55:42;101269.44;;;3.44;69.96
74631;BME280;63138;55.082;38.804;2022-10-16T02:58:07;101282.78;;;3.46;69.70
74631;BME280;63138;55.082;38.804;2022-10-16T03:00:34;101274.13;;;3.41;70.22
74631;BME280;63138;55.082;38.804;2022-10-16T03:02:59;101281.22;;;3.42;70.55
74631;BME280;63138;55.082;38.804;2022-10-16T03:05:25;101276.06;;;3.39;70.71
74631;BME280;63138;55.082;38.804;2022-10-16T03:07:51;101279.88;;;3.35;71.31
74631;BME280;63138;55.082;38.804;2022-10-16T03:10:18;101280.00;;;3.33;70.61
74631;BME280;63138;55.082;38.804;2022-10-16T03:12:44;101280.09;;;3.32;71.08
74631;BME280;63138;55.082;38.804;2022-10-16T03:15:09;101276.66;;;3.30;71.42
74631;BME280;63138;55.082;38.804;2022-10-16T03:17:35;101288.44;;;3.27;71.66
74631;BME280;63138;55.082;38.804;2022-10-16T03:20:02;101282.56;;;3.20;71.70
74631;BME280;63138;55.082;38.804;2022-10-16T03:22:29;101296.88;;;3.21;71.83
74631;BME280;63138;55.082;38.804;2022-10-16T03:24:55;101286.59;;;3.13;71.83
74631;BME280;63138;55.082;38.804;2022-10-16T03:27:20;101293.03;;;3.11;71.78
74631;BME280;63138;55.082;38.804;2022-10-16T03:29:46;101305.41;;;3.13;72.19
74631;BME280;63138;55.082;38.804;2022-10-16T03:32:12;101294.19;;;3.06;72.12
74631;BME280;63138;55.082;38.804;2022-10-16T03:34:38;101299.66;;;3.05;72.60
74631;BME280;63138;55.082;38.804;2022-10-16T03:37:03;101309.53;;;3.04;73.01
74631;BME280;63138;55.082;38.804;2022-10-16T03:39:29;101303.28;;;3.04;72.92
74631;BME280;63138;55.082;38.804;2022-10-16T03:41:55;101310.56;;;3.02;72.64
74631;BME280;63138;55.082;38.804;2022-10-16T03:44:21;101309.72;;;3.01;72.88
74631;BME280;63138;55.082;38.804;2022-10-16T03:46:47;101301.94;;;2.97;72.63
74631;BME280;63138;55.082;38.804;2022-10-16T03:49:12;101316.13;;;2.99;73.09
74631;BME280;63138;55.082;38.804;2022-10-16T03:51:38;101326.00;;;2.98;73.08
74631;BME280;63138;55.082;38.804;2022-10-16T03:54:04;101315.34;;;2.97;72.22
74631;BME280;63138;55.082;38.804;2022-10-16T03:56:29;101320.81;;;2.95;73.00
74631;BME280;63138;55.082;38.804;2022-10-16T03:58:55;101320.03;;;2.93;73.30
74631;BME280;63138;55.082;38.804;2022-10-16T04:01:21;101324.66;;;2.91;72.95
74631;BME280;63138;55.082;38.804;2022-10-16T04:03:47;101336.06;;;2.95;73.46
74631;BME280;63138;55.082;38.804;2022-10-16T04:06:13;101324.75;;;2.90;73.23
74631;BME280;63138;55.082;38.804;2022-10-16T04:08:39;101326.75;;;2.86;73.45
74631;BME280;63138;55.082;38.804;2022-10-16T04:11:04;101332.88;;;2.88;73.77
74631;BME280;63138;55.082;38.804;2022-10-16T04:13:30;101324.81;;;2.88;73.54
74631;BME280;63138;55.082;38.804;2022-10-16T04:15:56;101330.19;;;2.88;73.58
74631;BME280;63138;55.082;38.804;2022-10-16T04:18:22;101327.63;;;2.86;73.37
74631;BME280;63138;55.082;38.804;2022-10-16T04:20:48;101330.41;;;2.85;74.24
74631;BME280;63138;55.082;38.804;2022-10-16T04:23:14;101321.75;;;2.80;74.25
74631;BME280;63138;55.082;38.804;2022-10-16T04:25:42;101335.19;;;2.80;74.69
74631;BME280;63138;55.082;38.804;2022-10-16T04:28:08;101330.66;;;2.80;74.42
74631;BME280;63138;55.082;38.804;2022-10-16T04:30:33;101326.28;;;2.79;75.40
74631;BME280;63138;55.082;38.804;2022-10-16T04:32:59;101330.75;;;2.79;74.86
74631;BME280;63138;55.082;38.804;2022-10-16T04:35:25;101336.13;;;2.79;75.14
74631;BME280;63138;55.082;38.804;2022-10-16T04:37:51;101338.03;;;2.77;74.81
74631;BME280;63138;55.082;38.804;2022-10-16T04:40:17;101337.09;;;2.78;74.96
74631;BME280;63138;55.082;38.804;2022-10-16T04:42:42;101334.41;;;2.78;75.26
74631;BME280;63138;55.082;38.804;2022-10-16T04:45:08;101331.81;;;2.76;74.87
74631;BME280;63138;55.082;38.804;2022-10-16T04:47:34;101331.66;;;2.79;74.82
74631;BME280;63138;55.082;38.804;2022-10-16T04:50:00;101329.81;;;2.80;74.19
74631;BME280;63138;55.082;38.804;2022-10-16T04:52:29;101335.00;;;2.83;74.20
74631;BME280;63138;55.082;38.804;2022-10-16T04:54:55;101344.50;;;2.89;74.23
74631;BME280;63138;55.082;38.804;2022-10-16T04:57:25;101333.56;;;2.92;74.20
74631;BME280;63138;55.082;38.804;2022-10-16T04:59:52;101336.06;;;2.95;74.33
74631;BME280;63138;55.082;38.804;2022-10-16T05:02:19;101338.47;;;2.99;73.96
74631;BME280;63138;55.082;38.804;2022-10-16T05:04:45;101330.34;;;3.01;73.61
74631;BME280;63138;55.082;38.804;2022-10-16T05:07:10;101338.09;;;3.05;73.13
74631;BME280;63138;55.082;38.804;2022-10-16T05:09:36;101341.44;;;3.09;73.08
74631;BME280;63138;55.082;38.804;2022-10-16T05:12:02;101345.66;;;3.13;73.32
74631;BME280;63138;55.082;38.804;2022-10-16T05:14:29;101337.34;;;3.18;73.11
74631;BME280;63138;55.082;38.804;2022-10-16T05:16:55;101340.78;;;3.20;73.45
74631;BME280;63138;55.082;38.804;2022-10-16T05:19:20;101345.56;;;3.29;72.67
74631;BME280;63138;55.082;38.804;2022-10-16T05:21:46;101343.28;;;3.37;72.38
74631;BME280;63138;55.082;38.804;2022-10-16T05:24:12;101344.91;;;3.40;72.40
74631;BME280;63138;55.082;38.804;2022-10-16T05:26:38;101339.72;;;4.07;70.61
74631;BME280;63138;55.082;38.804;2022-10-16T05:29:03;101353.75;;;5.18;66.87
74631;BME280;63138;55.082;38.804;2022-10-16T05:31:29;101347.97;;;6.00;63.50
74631;BME280;63138;55.082;38.804;2022-10-16T05:34:02;101356.34;;;6.56;61.49
74631;BME280;63138;55.082;38.804;2022-10-16T05:36:27;101346.09;;;7.31;59.53
74631;BME280;63138;55.082;38.804;2022-10-16T05:38:53;101349.53;;;7.89;57.64
74631;BME280;63138;55.082;38.804;2022-10-16T05:41:19;101348.44;;;8.47;56.24
74631;BME280;63138;55.082;38.804;2022-10-16T05:43:47;101347.69;;;8.98;53.61
74631;BME280;63138;55.082;38.804;2022-10-16T05:46:14;101355.69;;;9.51;52.72
74631;BME280;63138;55.082;38.804;2022-10-16T05:48:40;101355.50;;;9.74;51.46
74631;BME280;63138;55.082;38.804;2022-10-16T05:51:08;101361.44;;;9.99;50.09
74631;BME280;63138;55.082;38.804;2022-10-16T05:53:35;101359.00;;;10.65;48.87
74631;BME280;63138;55.082;38.804;2022-10-16T05:56:02;101360.34;;;10.11;49.07
74631;BME280;63138;55.082;38.804;2022-10-16T05:58:30;101363.19;;;10.09;49.15
74631;BME280;63138;55.082;38.804;2022-10-16T06:01:05;101360.97;;;10.44;48.54
74631;BME280;63138;55.082;38.804;2022-10-16T06:03:33;101360.28;;;10.81;47.82
74631;BME280;63138;55.082;38.804;2022-10-16T06:05:59;101368.81;;;11.72;46.64
74631;BME280;63138;55.082;38.804;2022-10-16T06:08:32;101364.97;;;11.65;45.19
74631;BME280;63138;55.082;38.804;2022-10-16T06:11:06;101372.41;;;11.63;45.31
74631;BME280;63138;55.082;38.804;2022-10-16T06:13:35;101366.03;;;12.19;44.23
74631;BME280;63138;55.082;38.804;2022-10-16T06:16:01;101369.97;;;12.07;44.15
74631;BME280;63138;55.082;38.804;2022-10-16T06:18:28;101369.19;;;12.15;44.54
74631;BME280;63138;55.082;38.804;2022-10-16T06:20:55;101367.69;;;13.02;42.44
74631;BME280;63138;55.082;38.804;2022-10-16T06:23:21;101364.97;;;12.84;42.45
74631;BME280;63138;55.082;38.804;2022-10-16T06:25:47;101378.59;;;13.81;40.95
74631;BME280;63138;55.082;38.804;2022-10-16T06:28:14;101376.59;;;14.42;39.71
74631;BME280;63138;55.082;38.804;2022-10-16T06:30:40;101373.44;;;14.79;38.62
74631;BME280;63138;55.082;38.804;2022-10-16T06:33:06;101370.53;;;14.89;37.66
74631;BME280;63138;55.082;38.804;2022-10-16T06:35:32;101376.34;;;14.61;38.16
74631;BME280;63138;55.082;38.804;2022-10-16T06:37:58;101371.41;;;14.22;37.58
74631;BME280;63138;55.082;38.804;2022-10-16T06:40:24;101366.59;;;15.00;37.55
74631;BME280;63138;55.082;38.804;2022-10-16T06:42:49;101375.69;;;15.00;36.95
74631;BME280;63138;55.082;38.804;2022-10-16T06:45:17;101372.09;;;15.97;35.60
74631;BME280;63138;55.082;38.804;2022-10-16T06:47:43;101371.22;;;16.04;35.01
74631;BME280;63138;55.082;38.804;2022-10-16T06:50:08;101378.09;;;15.20;36.53
74631;BME280;63138;55.082;38.804;2022-10-16T06:52:34;101379.91;;;15.36;36.15
74631;BME280;63138;55.082;38.804;2022-10-16T06:55:00;101375.94;;;15.79;35.27
74631;BME280;63138;55.082;38.804;2022-10-16T06:57:26;101362.84;;;16.29;34.75
74631;BME280;63138;55.082;38.804;2022-10-16T06:59:52;101379.22;;;16.06;34.78
74631;BME280;63138;55.082;38.804;2022-10-16T07:02:18;101380.28;;;15.33;35.29
74631;BME280;63138;55.082;38.804;2022-10-16T07:04:44;101373.38;;;15.61;35.50
74631;BME280;63138;55.082;38.804;2022-10-16T07:07:09;101376.78;;;15.80;35.09
74631;BME280;63138;55.082;38.804;2022-10-16T07:09:35;101384.41;;;16.40;34.12
74631;BME280;63138;55.082;38.804;2022-10-16T07:12:01;101387.16;;;16.01;34.52
74631;BME280;63138;55.082;38.804;2022-10-16T07:14:27;101387.31;;;15.99;34.92
74631;BME280;63138;55.082;38.804;2022-10-16T07:16:53;101389.09;;;15.84;35.30
74631;BME280;63138;55.082;38.804;2022-10-16T07:19:18;101381.44;;;16.73;34.08
74631;BME280;63138;55.082;38.804;2022-10-16T07:21:44;101385.44;;;16.62;33.56
74631;BME280;63138;55.082;38.804;2022-10-16T07:24:12;101392.56;;;15.53;35.14
74631;BME280;63138;55.082;38.804;2022-10-16T07:26:39;101394.25;;;16.18;34.59
74631;BME280;63138;55.082;38.804;2022-10-16T07:29:17;101390.75;;;16.01;34.69
74631;BME280;63138;55.082;38.804;2022-10-16T07:31:43;101393.97;;;16.44;33.92
74631;BME280;63138;55.082;38.804;2022-10-16T07:34:11;101396.31;;;15.68;34.76
74631;BME280;63138;55.082;38.804;2022-10-16T07:36:37;101391.56;;;15.29;35.22
74631;BME280;63138;55.082;38.804;2022-10-16T07:39:03;101387.63;;;15.40;35.78
74631;BME280;63138;55.082;38.804;2022-10-16T07:41:29;101389.88;;;16.40;34.47
74631;BME280;63138;55.082;38.804;2022-10-16T07:43:56;101387.06;;;16.49;34.20
74631;BME280;63138;55.082;38.804;2022-10-16T07:46:25;101397.13;;;16.88;33.61
74631;BME280;63138;55.082;38.804;2022-10-16T07:48:52;101386.66;;;16.29;34.19
74631;BME280;63138;55.082;38.804;2022-10-16T07:51:20;101389.31;;;16.14;34.66
74631;BME280;63138;55.082;38.804;2022-10-16T07:53:47;101389.03;;;16.63;33.89
74631;BME280;63138;55.082;38.804;2022-10-16T07:56:13;101387.63;;;16.98;32.98
74631;BME280;63138;55.082;38.804;2022-10-16T07:58:39;101392.66;;;17.48;32.51
74631;BME280;63138;55.082;38.804;2022-10-16T08:01:13;101392.69;;;17.25;32.51
74631;BME280;63138;55.082;38.804;2022-10-16T08:03:48;101396.56;;;16.92;33.25
74631;BME280;63138;55.082;38.804;2022-10-16T08:06:14;101391.81;;;15.92;34.72
74631;BME280;63138;55.082;38.804;2022-10-16T08:08:40;101395.56;;;16.31;34.27
74631;BME280;63138;55.082;38.804;2022-10-16T08:11:06;101406.09;;;16.11;34.91
74631;BME280;63138;55.082;38.804;2022-10-16T08:13:32;101390.84;;;15.60;35.13
74631;BME280;63138;55.082;38.804;2022-10-16T08:15:58;101399.06;;;15.44;35.28
74631;BME280;63138;55.082;38.804;2022-10-16T08:18:24;101395.16;;;14.89;36.99
74631;BME280;63138;55.082;38.804;2022-10-16T08:20:57;101396.34;;;15.19;36.84
74631;BME280;63138;55.082;38.804;2022-10-16T08:23:24;101396.13;;;15.78;36.02
74631;BME280;63138;55.082;38.804;2022-10-16T08:25:53;101384.22;;;16.02;35.74
74631;BME280;63138;55.082;38.804;2022-10-16T08:28:19;101397.00;;;16.18;34.97
74631;BME280;63138;55.082;38.804;2022-10-16T08:30:45;101391.50;;;16.18;35.08
74631;BME280;63138;55.082;38.804;2022-10-16T08:33:11;101394.13;;;15.31;36.14
74631;BME280;63138;55.082;38.804;2022-10-16T08:35:37;101400.63;;;15.38;36.40
74631;BME280;63138;55.082;38.804;2022-10-16T08:38:04;101393.97;;;15.00;36.66
74631;BME280;63138;55.082;38.804;2022-10-16T08:40:31;101382.84;;;14.85;37.35
74631;BME280;63138;55.082;38.804;2022-10-16T08:51:04;101377.22;;;14.70;37.75
74631;BME280;63138;55.082;38.804;2022-10-16T08:53:38;101387.81;;;14.73;38.01
74631;BME280;63138;55.082;38.804;2022-10-16T08:56:07;101379.63;;;14.89;38.07
74631;BME280;63138;55.082;38.804;2022-10-16T08:58:33;101385.75;;;14.83;37.80
74631;BME280;63138;55.082;38.804;2022-10-16T09:01:03;101386.44;;;14.94;37.54
74631;BME280;63138;55.082;38.804;2022-10-16T09:06:41;101373.78;;;14.68;37.90
74631;BME280;63138;55.082;38.804;2022-10-16T09:09:14;101381.81;;;14.61;37.00
74631;BME280;63138;55.082;38.804;2022-10-16T09:11:55;101375.84;;;14.90;36.97
74631;BME280;63138;55.082;38.804;2022-10-16T09:22:27;101368.59;;;14.57;36.72
74631;BME280;63138;55.082;38.804;2022-10-16T09:25:05;101387.78;;;14.65;36.69
74631;BME280;63138;55.082;38.804;2022-10-16T09:27:36;101385.00;;;14.57;36.59
74631;BME280;63138;55.082;38.804;2022-10-16T09:30:14;101369.47;;;14.57;36.75
74631;BME280;63138;55.082;38.804;2022-10-16T09:32:42;101373.44;;;15.12;36.16
74631;BME280;63138;55.082;38.804;2022-10-16T09:35:21;101373.44;;;15.28;35.57
74631;BME280;63138;55.082;38.804;2022-10-16T09:37:50;101376.16;;;15.45;35.47
74631;BME280;63138;55.082;38.804;2022-10-16T09:40:38;101372.06;;;15.24;35.21
74631;BME280;63138;55.082;38.804;2022-10-16T09:43:19;101371.72;;;15.19;35.81
74631;BME280;63138;55.082;38.804;2022-10-16T09:46:00;101368.34;;;15.09;35.18
74631;BME280;63138;55.082;38.804;2022-10-16T09:48:33;101377.56;;;15.08;35.17
74631;BME280;63138;55.082;38.804;2022-10-16T09:51:03;101366.97;;;14.80;35.86
74631;BME280;63138;55.082;38.804;2022-10-16T09:53:44;101365.78;;;14.15;36.66
74631;BME280;63138;55.082;38.804;2022-10-16T09:56:20;101373.09;;;14.07;36.95
74631;BME280;63138;55.082;38.804;2022-10-16T09:58:54;101367.34;;;13.84;37.24
74631;BME280;63138;55.082;38.804;2022-10-16T10:01:23;101363.88;;;13.73;37.52
74631;BME280;63138;55.082;38.804;2022-10-16T10:03:56;101365.69;;;13.56;37.72
74631;BME280;63138;55.082;38.804;2022-10-16T10:06:32;101369.38;;;13.47;38.14
74631;BME280;63138;55.082;38.804;2022-10-16T10:11:56;101362.38;;;13.79;37.82
74631;BME280;63138;55.082;38.804;2022-10-16T10:19:55;101346.91;;;13.27;38.19
74631;BME280;63138;55.082;38.804;2022-10-16T10:22:40;101354.34;;;13.25;39.28
74631;BME280;63138;55.082;38.804;2022-10-16T10:30:56;101350.50;;;13.10;39.30
74631;BME280;63138;55.082;38.804;2022-10-16T10:46:35;101341.28;;;12.49;40.52
74631;BME280;63138;55.082;38.804;2022-10-16T10:49:29;101340.34;;;12.40;40.65
74631;BME280;63138;55.082;38.804;2022-10-16T10:54:44;101338.31;;;12.24;41.17
74631;BME280;63138;55.082;38.804;2022-10-16T11:06:03;101331.50;;;11.82;41.88
74631;BME280;63138;55.082;38.804;2022-10-16T11:08:46;101330.72;;;11.72;42.08
74631;BME280;63138;55.082;38.804;2022-10-16T11:11:25;101339.59;;;11.74;42.46
74631;BME280;63138;55.082;38.804;2022-10-16T11:16:30;101344.63;;;11.69;42.61
74631;BME280;63138;55.082;38.804;2022-10-16T11:19:14;101342.75;;;11.70;42.66
74631;BME280;63138;55.082;38.804;2022-10-16T11:21:51;101336.47;;;11.69;42.50
74631;BME280;63138;55.082;38.804;2022-10-16T11:24:24;101348.25;;;11.60;42.64
74631;BME280;63138;55.082;38.804;2022-10-16T11:26:59;101350.25;;;11.58;42.44
74631;BME280;63138;55.082;38.804;2022-10-16T11:29:31;101342.38;;;11.55;42.44
74631;BME280;63138;55.082;38.804;2022-10-16T11:32:22;101350.53;;;11.55;42.96
74631;BME280;63138;55.082;38.804;2022-10-16T11:34:57;101341.47;;;11.36;42.88
74631;BME280;63138;55.082;38.804;2022-10-16T11:37:46;101350.19;;;11.30;42.97
74631;BME280;63138;55.082;38.804;2022-10-16T11:42:46;101339.44;;;11.38;43.12
74631;BME280;63138;55.082;38.804;2022-10-16T11:48:24;101344.00;;;11.38;43.16
74631;BME280;63138;55.082;38.804;2022-10-16T11:51:00;101338.41;;;11.39;43.44
74631;BME280;63138;55.082;38.804;2022-10-16T11:53:51;101334.28;;;11.35;43.43
74631;BME280;63138;55.082;38.804;2022-10-16T11:56:21;101331.16;;;11.30;43.50
74631;BME280;63138;55.082;38.804;2022-10-16T11:59:03;101335.47;;;11.23;43.48
74631;BME280;63138;55.082;38.804;2022-10-16T12:01:33;101330.59;;;11.26;43.40
74631;BME280;63138;55.082;38.804;2022-10-16T12:04:25;101327.59;;;11.29;43.24
74631;BME280;63138;55.082;38.804;2022-10-16T12:07:02;101319.44;;;11.29;42.96
74631;BME280;63138;55.082;38.804;2022-10-16T12:09:31;101322.91;;;11.22;43.65
74631;BME280;63138;55.082;38.804;2022-10-16T12:11:58;101329.03;;;11.24;43.68
74631;BME280;63138;55.082;38.804;2022-10-16T12:14:39;101320.59;;;11.17;43.31
74631;BME280;63138;55.082;38.804;2022-10-16T12:19:57;101314.59;;;11.14;43.46
74631;BME280;63138;55.082;38.804;2022-10-16T12:22:23;101319.28;;;11.21;43.41
74631;BME280;63138;55.082;38.804;2022-10-16T12:24:51;101307.59;;;11.11;43.26
74631;BME280;63138;55.082;38.804;2022-10-16T12:27:27;101310.63;;;11.08;43.91
74631;BME280;63138;55.082;38.804;2022-10-16T12:30:01;101319.47;;;11.10;43.62
74631;BME280;63138;55.082;38.804;2022-10-16T12:32:33;101313.91;;;11.12;43.79
74631;BME280;63138;55.082;38.804;2022-10-16T12:35:01;101291.88;;;11.05;43.80
74631;BME280;63138;55.082;38.804;2022-10-16T12:37:37;101316.06;;;11.08;43.72
74631;BME280;63138;55.082;38.804;2022-10-16T12:40:34;101315.44;;;11.14;44.18
74631;BME280;63138;55.082;38.804;2022-10-16T12:45:46;101309.03;;;11.15;43.67
74631;BME280;63138;55.082;38.804;2022-10-16T12:48:22;101312.72;;;11.14;43.90
74631;BME280;63138;55.082;38.804;2022-10-16T12:50:48;101297.34;;;10.95;43.64
74631;BME280;63138;55.082;38.804;2022-10-16T12:53:22;101296.03;;;10.99;43.93
74631;BME280;63138;55.082;38.804;2022-10-16T13:03:47;101291.03;;;10.95;44.93
74631;BME280;63138;55.082;38.804;2022-10-16T13:14:52;101293.06;;;10.83;44.52
74631;BME280;63138;55.082;38.804;2022-10-16T13:23:06;101296.34;;;10.77;44.94
74631;BME280;63138;55.082;38.804;2022-10-16T13:28:32;101288.50;;;10.64;45.23
74631;BME280;63138;55.082;38.804;2022-10-16T13:31:00;101288.25;;;10.57;45.74
74631;BME280;63138;55.082;38.804;2022-10-16T13:35:56;101299.25;;;10.56;45.90
74631;BME280;63138;55.082;38.804;2022-10-16T13:38:24;101293.25;;;10.52;46.22
74631;BME280;63138;55.082;38.804;2022-10-16T13:43:45;101294.53;;;10.38;47.05
74631;BME280;63138;55.082;38.804;2022-10-16T13:46:17;101294.09;;;10.33;47.15
74631;BME280;63138;55.082;38.804;2022-10-16T13:48:43;101291.06;;;10.26;47.46
74631;BME280;63138;55.082;38.804;2022-10-16T13:51:14;101284.50;;;10.19;47.48
74631;BME280;63138;55.082;38.804;2022-10-16T13:53:41;101295.19;;;10.11;47.50
74631;BME280;63138;55.082;38.804;2022-10-16T13:56:11;101296.16;;;10.00;47.80
74631;BME280;63138;55.082;38.804;2022-10-16T13:58:38;101282.31;;;9.93;47.90
74631;BME280;63138;55.082;38.804;2022-10-16T14:01:15;101286.31;;;9.89;48.24
74631;BME280;63138;55.082;38.804;2022-10-16T14:03:42;101288.84;;;9.81;48.61
74631;BME280;63138;55.082;38.804;2022-10-16T14:06:13;101298.38;;;9.75;48.88
74631;BME280;63138;55.082;38.804;2022-10-16T14:09:39;101297.38;;;9.67;49.20
74631;BME280;63138;55.082;38.804;2022-10-16T14:11:49;101295.91;;;9.53;49.56
74631;BME280;63138;55.082;38.804;2022-10-16T14:14:18;101302.75;;;9.47;50.00
74631;BME280;63138;55.082;38.804;2022-10-16T14:16:44;101304.53;;;9.37;50.35
74631;BME280;63138;55.082;38.804;2022-10-16T14:19:26;101309.06;;;9.27;50.75
74631;BME280;63138;55.082;38.804;2022-10-16T14:21:53;101300.28;;;9.13;50.93
74631;BME280;63138;55.082;38.804;2022-10-16T14:24:27;101293.44;;;9.09;51.32
74631;BME280;63138;55.082;38.804;2022-10-16T14:26:53;101290.53;;;9.01;51.63
74631;BME280;63138;55.082;38.804;2022-10-16T14:29:22;101300.91;;;8.96;52.08
74631;BME280;63138;55.082;38.804;2022-10-16T14:32:03;101307.13;;;8.87;52.22
74631;BME280;63138;55.082;38.804;2022-10-16T14:34:32;101308.63;;;8.79;52.56
74631;BME280;63138;55.082;38.804;2022-10-16T14:39:34;101308.50;;;8.60;52.85
74631;BME280;63138;55.082;38.804;2022-10-16T14:42:01;101314.16;;;8.57;53.31
74631;BME280;63138;55.082;38.804;2022-10-16T14:44:32;101312.97;;;8.50;53.22
74631;BME280;63138;55.082;38.804;2022-10-16T14:47:07;101318.06;;;8.43;53.90
74631;BME280;63138;55.082;38.804;2022-10-16T14:49:33;101313.22;;;8.35;53.86
74631;BME280;63138;55.082;38.804;2022-10-16T14:51:59;101313.75;;;8.29;54.52
74631;BME280;63138;55.082;38.804;2022-10-16T14:54:25;101318.69;;;8.24;54.85
74631;BME280;63138;55.082;38.804;2022-10-16T14:56:54;101317.97;;;8.22;55.14
74631;BME280;63138;55.082;38.804;2022-10-16T14:59:27;101322.41;;;8.12;55.44
74631;BME280;63138;55.082;38.804;2022-10-16T15:01:54;101322.81;;;8.07;55.58